createdAt,value
2022-08-30T00:01:14.687Z,18.90
2022-08-30T00:03:46.047Z,18.90
2022-08-30T00:06:15.730Z,18.90
2022-08-30T00:08:44.539Z,18.80
2022-08-30T00:11:14.755Z,18.80
2022-08-30T00:13:44.506Z,18.80
2022-08-30T00:16:14.356Z,18.90
2022-08-30T00:18:42.443Z,18.80
2022-08-30T00:21:11.373Z,18.90
2022-08-30T00:23:40.465Z,18.80
2022-08-30T00:26:09.159Z,18.70
2022-08-30T00:28:37.290Z,18.60
2022-08-30T00:31:07.384Z,18.70
2022-08-30T00:33:36.615Z,18.80
2022-08-30T00:36:05.109Z,18.70
2022-08-30T00:38:32.927Z,18.60
2022-08-30T00:41:01.464Z,18.50
2022-08-30T00:43:31.989Z,18.30
2022-08-30T00:46:04.289Z,18.40
2022-08-30T00:48:32.635Z,18.30
2022-08-30T00:51:06.326Z,18.40
2022-08-30T00:53:38.350Z,18.40
2022-08-30T00:56:07.290Z,18.30
2022-08-30T00:58:39.169Z,18.30
2022-08-30T01:01:08.870Z,18.30
2022-08-30T01:03:38.874Z,18.30
2022-08-30T01:06:08.805Z,18.30
2022-08-30T01:08:36.886Z,18.50
2022-08-30T01:11:05.766Z,18.40
2022-08-30T01:13:35.183Z,18.40
2022-08-30T01:16:03.947Z,18.40
2022-08-30T01:18:32.866Z,18.40
2022-08-30T01:21:06.851Z,18.40
2022-08-30T01:23:38.311Z,18.20
2022-08-30T01:26:07.059Z,18.20
2022-08-30T01:28:36.176Z,18.10
2022-08-30T01:31:04.776Z,18.20
2022-08-30T01:33:32.984Z,18.10
2022-08-30T01:36:03.684Z,18.10
2022-08-30T01:38:36.932Z,18.00
2022-08-30T01:41:11.676Z,17.90
2022-08-30T01:43:39.649Z,17.90
2022-08-30T01:46:07.625Z,17.80
2022-08-30T01:48:35.534Z,17.70
2022-08-30T01:51:03.715Z,17.70
2022-08-30T01:53:32.359Z,17.60
2022-08-30T01:56:01.508Z,17.60
2022-08-30T01:58:29.781Z,17.50
2022-08-30T02:00:58.313Z,17.40
2022-08-30T02:03:30.415Z,17.40
2022-08-30T02:05:58.285Z,17.50
2022-08-30T02:08:26.086Z,17.40
2022-08-30T02:10:58.011Z,17.40
2022-08-30T02:13:27.233Z,17.50
2022-08-30T02:15:55.752Z,17.70
2022-08-30T02:18:24.219Z,17.60
2022-08-30T02:20:52.038Z,17.60
2022-08-30T02:23:19.848Z,17.60
2022-08-30T02:25:48.066Z,17.60
2022-08-30T02:28:15.963Z,17.60
2022-08-30T02:30:47.825Z,17.40
2022-08-30T02:33:16.250Z,17.40
2022-08-30T02:35:44.259Z,17.30
2022-08-30T02:38:12.979Z,17.30
2022-08-30T02:40:41.711Z,17.30
2022-08-30T02:43:09.655Z,17.20
2022-08-30T02:45:37.685Z,17.30
2022-08-30T02:48:06.991Z,17.20
2022-08-30T02:50:34.870Z,17.30
2022-08-30T02:53:02.658Z,17.30
2022-08-30T02:55:30.574Z,17.30
2022-08-30T02:57:58.634Z,17.30
2022-08-30T03:00:26.460Z,17.30
2022-08-30T03:02:54.451Z,17.20
2022-08-30T03:05:24.034Z,17.20
2022-08-30T03:07:52.023Z,17.20
2022-08-30T03:10:19.994Z,17.30
2022-08-30T03:12:48.426Z,17.50
2022-08-30T03:15:17.580Z,17.40
2022-08-30T03:17:45.394Z,17.20
2022-08-30T03:20:13.958Z,17.10
2022-08-30T03:22:43.123Z,17.10
2022-08-30T03:25:11.205Z,17.00
2022-08-30T03:27:39.064Z,17.10
2022-08-30T03:30:08.802Z,17.00
2022-08-30T03:32:37.386Z,17.20
2022-08-30T03:35:06.222Z,17.10
2022-08-30T03:37:34.099Z,17.20
2022-08-30T03:40:04.056Z,17.30
2022-08-30T03:42:31.901Z,17.30
2022-08-30T03:45:02.222Z,17.40
2022-08-30T03:47:30.479Z,17.30
2022-08-30T03:49:58.455Z,17.10
2022-08-30T03:52:26.291Z,17.30
2022-08-30T03:54:54.102Z,17.20
2022-08-30T03:57:24.497Z,17.20
2022-08-30T03:59:52.815Z,17.00
2022-08-30T04:02:21.162Z,17.00
2022-08-30T04:04:49.046Z,16.90
2022-08-30T04:07:16.903Z,16.90
2022-08-30T04:09:44.715Z,16.90
2022-08-30T04:12:12.523Z,16.90
2022-08-30T04:14:45.166Z,17.00
2022-08-30T04:17:12.966Z,17.20
2022-08-30T04:19:40.782Z,17.30
2022-08-30T04:22:08.982Z,17.40
2022-08-30T04:24:38.291Z,17.40
2022-08-30T04:27:06.424Z,17.20
2022-08-30T04:29:35.057Z,17.10
2022-08-30T04:32:04.854Z,17.00
2022-08-30T04:34:32.866Z,16.90
2022-08-30T04:37:00.779Z,16.80
2022-08-30T04:39:28.602Z,16.80
2022-08-30T04:41:57.484Z,16.70
2022-08-30T04:44:27.333Z,16.60
2022-08-30T04:46:55.160Z,16.70
2022-08-30T04:49:24.310Z,16.70
2022-08-30T04:51:52.104Z,16.80
2022-08-30T04:54:19.933Z,16.80
2022-08-30T04:56:47.743Z,16.80
2022-08-30T04:59:15.571Z,16.90
2022-08-30T05:01:45.458Z,17.00
2022-08-30T05:04:14.067Z,17.10
2022-08-30T05:06:43.787Z,17.10
2022-08-30T05:09:11.869Z,17.10
2022-08-30T05:11:39.760Z,17.10
2022-08-30T05:14:07.717Z,17.10
2022-08-30T05:16:35.605Z,17.10
2022-08-30T05:19:03.493Z,17.20
2022-08-30T05:21:31.371Z,17.10
2022-08-30T05:24:01.762Z,17.20
2022-08-30T05:26:31.984Z,17.20
2022-08-30T05:28:59.959Z,17.20
2022-08-30T05:31:30.063Z,17.30
2022-08-30T05:33:58.082Z,17.40
2022-08-30T05:36:29.131Z,17.50
2022-08-30T05:38:57.654Z,17.60
2022-08-30T05:41:28.151Z,17.60
2022-08-30T05:43:57.810Z,17.60
2022-08-30T05:46:29.331Z,17.70
2022-08-30T05:48:58.330Z,17.80
2022-08-30T05:51:28.723Z,17.80
2022-08-30T05:53:58.368Z,17.90
2022-08-30T05:56:31.999Z,17.90
2022-08-30T05:59:00.263Z,18.00
2022-08-30T06:01:31.731Z,18.00
2022-08-30T06:04:03.860Z,18.00
2022-08-30T06:06:35.433Z,18.10
2022-08-30T06:09:05.267Z,18.20
2022-08-30T06:11:35.964Z,18.20
2022-08-30T06:14:04.822Z,18.20
2022-08-30T06:16:32.765Z,18.20
2022-08-30T06:19:01.133Z,18.20
2022-08-30T06:21:31.512Z,18.20
2022-08-30T06:23:59.899Z,18.10
2022-08-30T06:26:29.753Z,18.20
2022-08-30T06:28:59.712Z,18.30
2022-08-30T06:31:27.646Z,18.30
2022-08-30T06:33:55.811Z,18.40
2022-08-30T06:36:25.588Z,18.40
2022-08-30T06:38:55.177Z,18.50
2022-08-30T06:41:24.964Z,18.60
2022-08-30T06:43:53.467Z,18.70
2022-08-30T06:46:24.635Z,18.80
2022-08-30T06:48:53.050Z,18.90
2022-08-30T06:51:25.392Z,19.10
2022-08-30T06:53:54.083Z,19.20
2022-08-30T06:56:22.952Z,19.30
2022-08-30T06:58:51.768Z,19.50
2022-08-30T07:01:23.700Z,19.60
2022-08-30T07:03:52.411Z,19.70
2022-08-30T07:06:21.162Z,19.80
2022-08-30T07:08:50.987Z,19.90
2022-08-30T07:11:29.200Z,20.00
2022-08-30T07:13:57.678Z,20.00
2022-08-30T07:16:27.007Z,20.10
2022-08-30T07:18:54.887Z,20.20
2022-08-30T07:21:25.524Z,20.20
2022-08-30T07:23:54.952Z,20.20
2022-08-30T07:26:25.622Z,20.30
2022-08-30T07:28:55.939Z,20.40
2022-08-30T07:31:27.308Z,20.50
2022-08-30T07:33:55.731Z,20.50
2022-08-30T07:36:24.559Z,20.60
2022-08-30T07:38:53.659Z,20.70
2022-08-30T07:41:25.899Z,20.80
2022-08-30T07:43:54.415Z,20.90
2022-08-30T07:46:23.581Z,21.10
2022-08-30T07:48:54.272Z,21.30
2022-08-30T07:51:24.045Z,21.70
2022-08-30T07:53:52.381Z,22.20
2022-08-30T07:56:20.840Z,23.00
2022-08-30T07:58:48.865Z,23.70
2022-08-30T08:01:18.075Z,24.30
2022-08-30T08:03:46.717Z,25.10
2022-08-30T08:06:17.493Z,25.70
2022-08-30T08:08:46.343Z,26.20
2022-08-30T08:11:16.673Z,26.50
2022-08-30T08:13:53.606Z,27.00
2022-08-30T08:16:23.465Z,27.20
2022-08-30T08:18:51.961Z,27.10
2022-08-30T08:21:21.847Z,27.40
2022-08-30T08:23:49.727Z,27.90
2022-08-30T08:26:17.725Z,28.20
2022-08-30T08:28:47.005Z,28.40
2022-08-30T08:31:16.058Z,28.30
2022-08-30T08:33:44.036Z,28.20
2022-08-30T08:36:11.846Z,28.10
2022-08-30T08:38:41.271Z,28.00
2022-08-30T08:41:18.803Z,28.00
2022-08-30T08:43:46.646Z,27.80
2022-08-30T08:46:22.594Z,27.70
2022-08-30T08:49:02.161Z,27.60
2022-08-30T08:51:52.025Z,27.20
2022-08-30T08:54:28.135Z,26.80
2022-08-30T08:56:56.235Z,26.70
2022-08-30T08:59:24.042Z,26.70
2022-08-30T09:01:52.054Z,27.10
2022-08-30T09:04:24.217Z,27.20
2022-08-30T09:06:55.918Z,27.30
2022-08-30T09:09:29.339Z,27.40
2022-08-30T09:11:57.153Z,27.30
2022-08-30T09:14:30.323Z,27.30
2022-08-30T09:17:02.927Z,27.20
2022-08-30T09:19:41.966Z,27.10
2022-08-30T09:22:23.324Z,26.90
2022-08-30T09:24:54.544Z,26.80
2022-08-30T09:27:28.823Z,26.80
2022-08-30T09:30:00.709Z,27.00
2022-08-30T09:32:35.318Z,27.20
2022-08-30T09:35:04.584Z,27.40
2022-08-30T09:37:36.826Z,27.80
2022-08-30T09:40:14.547Z,28.00
2022-08-30T09:42:42.806Z,28.30
2022-08-30T09:45:33.478Z,28.60
2022-08-30T09:48:01.419Z,28.80
2022-08-30T09:50:36.393Z,29.00
2022-08-30T09:53:11.927Z,29.40
2022-08-30T09:55:55.955Z,29.80
2022-08-30T09:58:34.770Z,30.10
2022-08-30T10:01:11.709Z,30.20
2022-08-30T10:03:48.626Z,30.30
2022-08-30T10:06:25.968Z,30.50
2022-08-30T10:09:07.166Z,30.50
2022-08-30T10:11:43.654Z,30.40
2022-08-30T10:14:45.172Z,30.50
2022-08-30T10:17:22.318Z,30.50
2022-08-30T10:20:04.840Z,30.20
2022-08-30T10:22:36.931Z,30.00
2022-08-30T10:25:11.027Z,29.90
2022-08-30T10:27:52.092Z,30.20
2022-08-30T10:30:20.499Z,30.10
2022-08-30T10:32:54.296Z,30.10
2022-08-30T10:35:24.503Z,30.00
2022-08-30T10:37:55.940Z,30.00
2022-08-30T10:40:47.651Z,29.60
2022-08-30T10:43:24.306Z,29.70
2022-08-30T10:46:00.735Z,30.00
2022-08-30T10:48:33.450Z,30.10
2022-08-30T10:51:08.966Z,30.30
2022-08-30T10:53:41.918Z,30.10
2022-08-30T10:56:15.154Z,30.40
2022-08-30T10:58:44.568Z,30.60
2022-08-30T11:01:36.682Z,30.90
2022-08-30T11:04:45.654Z,30.70
2022-08-30T11:07:23.123Z,31.00
2022-08-30T11:10:05.523Z,31.30
2022-08-30T11:12:37.658Z,31.30
2022-08-30T11:15:21.442Z,31.20
2022-08-30T11:17:58.695Z,31.10
2022-08-30T11:20:39.876Z,30.80
2022-08-30T11:23:27.711Z,30.80
2022-08-30T11:26:03.309Z,31.00
2022-08-30T11:29:03.082Z,31.10
2022-08-30T11:31:37.239Z,31.20
2022-08-30T11:34:07.295Z,31.10
2022-08-30T11:37:10.282Z,30.80
2022-08-30T11:39:53.135Z,30.60
2022-08-30T11:42:37.611Z,30.50
2022-08-30T11:45:44.262Z,30.40
2022-08-30T11:48:46.975Z,30.20
2022-08-30T11:51:58.098Z,30.20
2022-08-30T11:54:42.774Z,30.30
2022-08-30T11:57:22.216Z,30.10
2022-08-30T12:00:00.309Z,30.30
2022-08-30T12:02:48.243Z,30.40
2022-08-30T12:05:51.379Z,30.50
2022-08-30T12:08:57.913Z,30.40
2022-08-30T12:11:57.797Z,30.30
2022-08-30T12:14:47.472Z,30.30
2022-08-30T12:17:46.073Z,30.20
2022-08-30T12:20:25.237Z,30.20
2022-08-30T12:22:55.799Z,30.10
2022-08-30T12:25:29.109Z,30.30
2022-08-30T12:28:12.573Z,30.40
2022-08-30T12:30:40.995Z,30.30
2022-08-30T12:33:12.045Z,30.20
2022-08-30T12:35:41.472Z,30.10
2022-08-30T12:38:27.549Z,30.10
2022-08-30T12:40:58.867Z,30.10
2022-08-30T12:43:38.962Z,30.00
2022-08-30T12:46:15.281Z,29.80
2022-08-30T12:48:44.659Z,29.70
2022-08-30T12:51:29.247Z,29.70
2022-08-30T12:54:19.955Z,29.80
2022-08-30T12:57:10.241Z,29.90
2022-08-30T12:59:56.764Z,29.80
2022-08-30T13:02:30.171Z,30.00
2022-08-30T13:04:59.345Z,30.10
2022-08-30T13:07:37.067Z,30.10
2022-08-30T13:10:21.233Z,29.90
2022-08-30T13:13:03.688Z,29.70
2022-08-30T13:15:33.775Z,29.70
2022-08-30T13:18:30.604Z,29.70
2022-08-30T13:21:11.943Z,29.50
2022-08-30T13:23:40.530Z,29.50
2022-08-30T13:26:09.871Z,29.40
2022-08-30T13:28:48.693Z,29.30
2022-08-30T13:31:17.090Z,29.40
2022-08-30T13:33:46.042Z,29.40
2022-08-30T13:36:15.231Z,29.40
2022-08-30T13:38:43.483Z,29.40
2022-08-30T13:41:12.685Z,29.40
2022-08-30T13:46:28.430Z,29.30
2022-08-30T13:49:03.255Z,29.20
2022-08-30T13:51:31.482Z,29.20
2022-08-30T13:54:00.662Z,29.20
2022-08-30T13:56:32.017Z,29.10
2022-08-30T13:58:59.968Z,29.20
2022-08-30T14:01:31.607Z,29.20
2022-08-30T14:04:19.226Z,29.10
2022-08-30T14:09:35.056Z,29.10
2022-08-30T14:12:04.962Z,29.10
2022-08-30T14:14:42.594Z,29.00
2022-08-30T14:17:12.529Z,29.00
2022-08-30T14:19:40.666Z,28.90
2022-08-30T14:22:08.481Z,28.90
2022-08-30T14:24:36.351Z,28.90
2022-08-30T14:27:05.587Z,29.00
2022-08-30T14:29:33.406Z,29.00
2022-08-30T14:32:03.349Z,29.00
2022-08-30T14:34:31.207Z,28.90
2022-08-30T14:37:00.654Z,28.80
2022-08-30T14:39:28.478Z,28.70
2022-08-30T14:41:56.994Z,28.70
2022-08-30T14:44:27.187Z,28.60
2022-08-30T14:46:56.008Z,28.60
2022-08-30T14:49:24.838Z,28.50
2022-08-30T14:51:53.397Z,28.50
2022-08-30T14:54:23.455Z,28.50
2022-08-30T14:56:54.094Z,28.40
2022-08-30T14:59:22.670Z,28.50
2022-08-30T15:01:52.157Z,28.50
2022-08-30T15:04:21.700Z,28.50
2022-08-30T15:06:50.263Z,28.50
2022-08-30T15:09:23.068Z,28.60
2022-08-30T15:11:52.351Z,28.60
2022-08-30T15:14:20.864Z,28.60
2022-08-30T15:16:48.688Z,28.60
2022-08-30T15:19:17.915Z,28.50
2022-08-30T15:21:49.048Z,28.50
2022-08-30T15:24:25.016Z,28.60
2022-08-30T15:26:58.195Z,28.50
2022-08-30T15:29:28.294Z,28.40
2022-08-30T15:31:58.760Z,28.40
2022-08-30T15:34:28.697Z,28.40
2022-08-30T15:36:57.440Z,28.30
2022-08-30T15:39:25.624Z,28.30
2022-08-30T15:41:58.444Z,28.30
2022-08-30T15:44:29.070Z,28.30
2022-08-30T15:46:56.960Z,28.30
2022-08-30T15:49:25.390Z,28.20
2022-08-30T15:51:54.772Z,28.20
2022-08-30T15:54:24.713Z,28.10
2022-08-30T15:56:59.455Z,28.00
2022-08-30T15:59:27.762Z,28.00
2022-08-30T16:01:55.695Z,27.90
2022-08-30T16:04:25.640Z,27.90
2022-08-30T16:06:55.335Z,27.90
2022-08-30T16:09:24.863Z,27.80
2022-08-30T16:11:52.872Z,27.80
2022-08-30T16:14:20.844Z,27.70
2022-08-30T16:16:48.672Z,27.60
2022-08-30T16:19:16.807Z,27.60
2022-08-30T16:21:44.906Z,27.50
2022-08-30T16:24:15.276Z,27.50
2022-08-30T16:26:44.614Z,27.40
2022-08-30T16:29:15.658Z,27.30
2022-08-30T16:31:44.601Z,27.30
2022-08-30T16:34:14.264Z,27.20
2022-08-30T16:36:42.126Z,27.10
2022-08-30T16:39:12.665Z,27.20
2022-08-30T16:41:42.467Z,27.20
2022-08-30T16:44:11.576Z,27.20
2022-08-30T16:46:40.272Z,27.10
2022-08-30T16:49:10.567Z,27.00
2022-08-30T16:51:39.518Z,27.00
2022-08-30T16:54:08.391Z,26.90
2022-08-30T16:56:37.760Z,27.10
2022-08-30T16:59:11.364Z,27.00
2022-08-30T17:01:41.037Z,26.90
2022-08-30T17:04:09.715Z,26.90
2022-08-30T17:06:38.055Z,26.80
2022-08-30T17:09:06.985Z,26.70
2022-08-30T17:11:34.834Z,26.70
2022-08-30T17:14:03.400Z,26.50
2022-08-30T17:16:34.702Z,26.50
2022-08-30T17:19:03.088Z,26.40
2022-08-30T17:21:33.145Z,26.20
2022-08-30T17:24:02.824Z,26.10
2022-08-30T17:26:32.259Z,26.00
2022-08-30T17:29:00.147Z,25.80
2022-08-30T17:31:30.296Z,25.70
2022-08-30T17:34:02.919Z,25.70
2022-08-30T17:36:32.000Z,25.60
2022-08-30T17:38:59.885Z,25.50
2022-08-30T17:41:27.743Z,25.40
2022-08-30T17:43:55.844Z,25.30
2022-08-30T17:46:23.771Z,25.30
2022-08-30T17:48:57.617Z,25.10
2022-08-30T17:51:31.309Z,25.10
2022-08-30T17:53:59.385Z,25.00
2022-08-30T17:56:30.395Z,25.00
2022-08-30T17:59:05.440Z,24.90
2022-08-30T18:01:33.331Z,24.80
2022-08-30T18:04:06.380Z,24.70
2022-08-30T18:06:36.263Z,24.70
2022-08-30T18:09:06.535Z,24.70
2022-08-30T18:11:36.414Z,24.70
2022-08-30T18:14:05.148Z,24.60
2022-08-30T18:16:33.447Z,24.70
2022-08-30T18:19:03.917Z,24.60
2022-08-30T18:21:31.728Z,24.60
2022-08-30T18:24:01.451Z,24.50
2022-08-30T18:26:29.336Z,24.50
2022-08-30T18:28:57.199Z,24.40
2022-08-30T18:31:25.113Z,24.40
2022-08-30T18:33:52.955Z,24.50
2022-08-30T18:36:21.032Z,24.50
2022-08-30T18:38:49.979Z,24.40
2022-08-30T18:41:19.130Z,24.20
2022-08-30T18:43:46.963Z,24.30
2022-08-30T18:46:18.045Z,24.20
2022-08-30T18:48:46.596Z,24.20
2022-08-30T18:51:17.265Z,24.20
2022-08-30T18:53:46.234Z,24.30
2022-08-30T18:56:16.559Z,24.40
2022-08-30T18:58:47.497Z,24.40
2022-08-30T19:01:20.720Z,24.50
2022-08-30T19:03:50.592Z,24.50
2022-08-30T19:06:20.436Z,24.50
2022-08-30T19:08:49.280Z,24.40
2022-08-30T19:11:17.302Z,24.50
2022-08-30T19:13:46.505Z,24.50
2022-08-30T19:16:16.600Z,24.50
2022-08-30T19:18:45.337Z,24.40
2022-08-30T19:21:14.790Z,24.40
2022-08-30T19:23:44.811Z,24.40
2022-08-30T19:26:13.206Z,24.30
2022-08-30T19:28:41.792Z,24.20
2022-08-30T19:31:10.960Z,24.30
2022-08-30T19:33:38.910Z,24.30
2022-08-30T19:36:07.359Z,24.40
2022-08-30T19:38:36.240Z,24.40
2022-08-30T19:41:04.628Z,24.40
2022-08-30T19:43:32.583Z,24.40
2022-08-30T19:46:01.516Z,24.30
2022-08-30T19:48:32.129Z,24.30
2022-08-30T19:51:01.284Z,24.20
2022-08-30T19:53:29.135Z,24.20
2022-08-30T19:55:56.929Z,24.20
2022-08-30T19:58:24.762Z,24.20
2022-08-30T20:01:01.079Z,24.10
2022-08-30T20:03:41.439Z,24.00
2022-08-30T20:06:10.510Z,23.80
2022-08-30T20:08:38.399Z,23.70
2022-08-30T20:11:06.746Z,23.40
2022-08-30T20:13:36.914Z,23.30
2022-08-30T20:16:05.967Z,23.20
2022-08-30T20:18:33.864Z,23.10
2022-08-30T20:21:03.471Z,23.10
2022-08-30T20:23:35.631Z,23.20
2022-08-30T20:26:04.690Z,23.20
2022-08-30T20:28:32.951Z,23.10
2022-08-30T20:31:00.861Z,23.20
2022-08-30T20:33:29.526Z,23.30
2022-08-30T20:36:01.713Z,23.20
2022-08-30T20:38:31.236Z,23.20
2022-08-30T20:41:01.102Z,23.10
2022-08-30T20:43:30.557Z,22.90
2022-08-30T20:45:58.484Z,22.90
2022-08-30T20:48:28.525Z,22.70
2022-08-30T20:50:56.368Z,22.60
2022-08-30T20:53:24.186Z,22.40
2022-08-30T20:55:53.318Z,22.40
2022-08-30T20:58:21.121Z,22.30
2022-08-30T21:00:51.438Z,22.20
2022-08-30T21:03:27.253Z,22.00
2022-08-30T21:05:56.138Z,22.00
2022-08-30T21:08:24.033Z,21.90
2022-08-30T21:10:54.517Z,21.70
2022-08-30T21:13:22.704Z,21.50
2022-08-30T21:15:52.815Z,21.30
2022-08-30T21:18:23.068Z,21.10
2022-08-30T21:20:50.897Z,20.70
2022-08-30T21:23:18.698Z,20.50
2022-08-30T21:25:46.530Z,20.30
2022-08-30T21:28:22.343Z,20.20
2022-08-30T21:30:50.211Z,20.20
2022-08-30T21:33:18.022Z,20.10
2022-08-30T21:36:03.243Z,20.00
2022-08-30T21:38:31.052Z,19.90
2022-08-30T21:40:58.897Z,20.00
2022-08-30T21:43:28.079Z,20.00
2022-08-30T21:45:55.967Z,20.00
2022-08-30T21:48:23.772Z,20.00
2022-08-30T21:50:51.599Z,20.00
2022-08-30T21:53:19.608Z,19.90
2022-08-30T21:55:48.071Z,20.00
2022-08-30T21:58:16.215Z,20.00
2022-08-30T22:00:45.443Z,20.00
2022-08-30T22:03:13.556Z,20.00
2022-08-30T22:05:41.821Z,19.90
2022-08-30T22:08:09.771Z,20.00
2022-08-30T22:10:37.624Z,19.90
2022-08-30T22:13:05.442Z,19.90
2022-08-30T22:15:33.374Z,19.70
2022-08-30T22:18:03.057Z,19.60
2022-08-30T22:20:30.943Z,19.60
2022-08-30T22:22:59.026Z,19.60
2022-08-30T22:25:26.893Z,19.60
2022-08-30T22:27:54.719Z,19.60
2022-08-30T22:30:22.544Z,19.80
2022-08-30T22:32:50.498Z,19.80
2022-08-30T22:35:21.915Z,19.80
2022-08-30T22:37:53.332Z,19.80
2022-08-30T22:40:22.265Z,19.80
2022-08-30T22:42:50.173Z,19.70
2022-08-30T22:45:18.114Z,19.60
2022-08-30T22:47:46.268Z,19.50
2022-08-30T22:50:14.213Z,19.50
2022-08-30T22:52:43.726Z,19.60
2022-08-30T22:55:11.859Z,19.50
2022-08-30T22:57:40.684Z,19.40
2022-08-30T23:00:12.719Z,19.40
2022-08-30T23:02:40.575Z,19.40
2022-08-30T23:05:09.707Z,19.30
2022-08-30T23:07:37.599Z,19.30
2022-08-30T23:10:08.470Z,19.40
2022-08-30T23:12:37.845Z,19.40
2022-08-30T23:15:07.230Z,19.50
2022-08-30T23:17:39.440Z,19.60
2022-08-30T23:20:09.490Z,19.50
2022-08-30T23:22:37.471Z,19.40
2022-08-30T23:25:25.463Z,19.20
2022-08-30T23:28:11.785Z,19.30
2022-08-30T23:31:02.655Z,19.30
2022-08-30T23:33:48.190Z,19.40
2022-08-30T23:36:33.665Z,19.40
2022-08-30T23:39:21.228Z,19.30
2022-08-30T23:42:08.005Z,19.30
2022-08-30T23:44:53.414Z,19.20
2022-08-30T23:47:38.762Z,19.10
2022-08-30T23:50:25.137Z,19.00
2022-08-30T23:53:10.868Z,18.90
2022-08-30T23:55:59.446Z,18.90
2022-08-30T23:58:46.343Z,18.90
